Time;durP1;ratioP1;P1;durP2;ratioP2;P2;SDS_P1;SDS_P2;PMS_P1;PMS_P2;Temp;Humidity;BMP_temperature;BMP_pressure;BME280_temperature;BME280_humidity;BME280_pressure;Samples;Min_cycle;Max_cycle;Signal;HPM_P1;HPM_P2
2021/03/21 00:00:39;;;;;;;3.78;3.10;;;5.00;53.90;;;;;;5076310;28;20211;-68
2021/03/21 00:03:05;;;;;;;6.57;3.20;;;5.00;53.80;;;;;;5075908;28;20219;-68
2021/03/21 00:05:32;;;;;;;5.82;3.78;;;5.00;54.20;;;;;;5075757;28;20567;-68
2021/03/21 00:08:01;;;;;;;5.22;3.00;;;5.00;54.10;;;;;;5075954;28;20597;-68
2021/03/21 00:10:30;;;;;;;4.38;3.40;;;5.00;54.20;;;;;;5076096;28;20238;-68
2021/03/21 00:12:57;;;;;;;4.97;3.80;;;4.90;54.80;;;;;;5075916;28;20634;-68
2021/03/21 00:15:23;;;;;;;4.03;2.80;;;5.00;54.40;;;;;;5076004;28;20234;-69
2021/03/21 00:17:51;;;;;;;4.50;3.67;;;5.00;54.40;;;;;;5075744;28;20233;-68
2021/03/21 00:20:20;;;;;;;3.58;2.95;;;5.00;54.10;;;;;;5075908;28;20294;-69
2021/03/21 00:22:46;;;;;;;5.38;3.08;;;5.00;53.80;;;;;;5075828;28;20629;-69
2021/03/21 00:25:15;;;;;;;3.67;2.60;;;5.00;53.90;;;;;;5075994;28;20306;-69
2021/03/21 00:27:43;;;;;;;5.65;3.00;;;4.90;54.00;;;;;;5075205;28;20285;-68
2021/03/21 00:30:13;;;;;;;4.75;3.42;;;5.00;54.30;;;;;;5075747;28;20234;-68
2021/03/21 00:32:39;;;;;;;3.30;2.80;;;5.00;54.30;;;;;;5075845;28;20207;-68
2021/03/21 00:35:07;;;;;;;5.30;2.97;;;5.00;55.30;;;;;;5075696;28;20344;-68
2021/03/21 00:37:33;;;;;;;6.57;3.47;;;5.00;54.40;;;;;;5075054;28;20218;-68
2021/03/21 00:40:00;;;;;;;6.50;2.92;;;5.00;54.20;;;;;;5075478;28;20279;-68
2021/03/21 00:42:26;;;;;;;5.05;3.40;;;5.10;54.50;;;;;;5075251;28;20289;-68
2021/03/21 00:44:53;;;;;;;3.25;2.40;;;5.10;54.20;;;;;;5075329;28;20500;-69
2021/03/21 00:47:19;;;;;;;3.28;2.40;;;5.10;54.00;;;;;;5075253;28;20199;-69
2021/03/21 00:49:46;;;;;;;4.60;3.25;;;5.10;53.60;;;;;;5075377;28;20297;-69
2021/03/21 00:52:12;;;;;;;3.78;2.70;;;5.00;53.70;;;;;;5075162;28;20206;-69
2021/03/21 00:54:38;;;;;;;3.58;2.80;;;5.00;54.00;;;;;;5074950;28;20313;-68
2021/03/21 00:57:06;;;;;;;3.80;3.08;;;5.00;53.50;;;;;;5074754;28;20223;-68
2021/03/21 00:59:32;;;;;;;3.83;2.70;;;4.90;53.80;;;;;;5075130;28;20249;-68
2021/03/21 01:02:00;;;;;;;7.90;3.30;;;4.90;54.20;;;;;;5075094;28;20255;-68
2021/03/21 01:04:26;;;;;;;5.63;3.25;;;4.90;54.40;;;;;;5074703;28;20314;-68
2021/03/21 01:06:52;;;;;;;4.53;3.38;;;4.80;54.70;;;;;;5074667;28;20195;-68
2021/03/21 01:09:18;;;;;;;5.65;3.00;;;4.90;54.50;;;;;;5074572;28;20630;-68
2021/03/21 01:11:45;;;;;;;5.25;3.80;;;4.80;54.00;;;;;;5074838;28;20198;-68
2021/03/21 01:14:11;;;;;;;6.43;3.00;;;4.80;54.10;;;;;;5074829;28;20333;-68
2021/03/21 01:16:40;;;;;;;4.75;2.90;;;4.80;54.30;;;;;;5073691;28;20225;-68
2021/03/21 01:19:14;;;;;;;3.80;2.80;;;4.80;54.40;;;;;;5074735;28;20651;-68
2021/03/21 01:21:44;;;;;;;3.10;2.38;;;4.80;54.50;;;;;;5074615;28;20217;-68
2021/03/21 01:24:11;;;;;;;4.75;3.10;;;4.80;54.80;;;;;;5074663;28;20234;-68
2021/03/21 01:26:38;;;;;;;3.92;2.90;;;4.80;54.00;;;;;;5074157;28;20665;-68
2021/03/21 01:29:04;;;;;;;5.80;3.10;;;4.80;54.30;;;;;;5074404;28;20294;-68
2021/03/21 01:31:31;;;;;;;4.50;2.90;;;4.80;54.50;;;;;;5074498;28;20202;-68
2021/03/21 01:33:57;;;;;;;5.55;3.55;;;4.70;54.00;;;;;;5074072;28;20701;-68
2021/03/21 01:36:27;;;;;;;5.72;3.25;;;4.70;54.60;;;;;;5074197;28;20210;-68
2021/03/21 01:38:55;;;;;;;3.78;2.80;;;4.70;54.20;;;;;;5074384;28;20546;-68
2021/03/21 01:41:25;;;;;;;5.32;3.63;;;4.80;54.30;;;;;;5074123;28;20212;-68
2021/03/21 01:43:51;;;;;;;4.93;3.50;;;4.70;54.00;;;;;;5074054;28;20219;-68
2021/03/21 01:46:24;;;;;;;3.88;2.95;;;4.80;54.30;;;;;;5073755;28;20298;-68
2021/03/21 01:48:54;;;;;;;6.05;2.97;;;4.80;54.60;;;;;;5074175;28;20259;-68
2021/03/21 01:51:25;;;;;;;4.53;2.78;;;4.80;54.30;;;;;;5074125;28;20643;-68
2021/03/21 01:53:56;;;;;;;5.45;3.10;;;4.70;54.30;;;;;;5074114;28;20309;-68
2021/03/21 01:56:24;;;;;;;4.50;2.90;;;4.80;55.10;;;;;;5073895;28;20228;-68
2021/03/21 01:58:55;;;;;;;3.85;2.72;;;4.80;55.20;;;;;;5073956;28;20256;-68
2021/03/21 02:01:25;;;;;;;4.47;3.15;;;4.80;55.40;;;;;;5074049;28;20241;-68
2021/03/21 02:03:51;;;;;;;5.60;3.00;;;4.80;55.20;;;;;;5073930;28;20233;-68
2021/03/21 02:06:49;;;;;;;4.22;2.53;;;4.90;55.10;;;;;;5073509;28;20198;-68
2021/03/21 02:09:22;;;;;;;5.30;2.80;;;4.90;55.10;;;;;;5073762;28;20203;-68
2021/03/21 02:12:21;;;;;;;4.05;2.95;;;4.80;54.70;;;;;;5073815;28;20297;-69
2021/03/21 02:14:54;;;;;;;5.57;3.10;;;4.80;54.80;;;;;;5074281;28;20309;-68
2021/03/21 02:17:25;;;;;;;6.05;3.40;;;4.80;54.90;;;;;;5073417;28;20265;-69
2021/03/21 02:20:14;;;;;;;4.72;3.03;;;4.80;55.10;;;;;;5073672;28;20633;-69
2021/03/21 02:22:48;;;;;;;4.05;2.42;;;4.80;55.30;;;;;;5073610;28;20674;-68
2021/03/21 02:25:40;;;;;;;4.57;2.90;;;4.80;55.60;;;;;;5073483;28;20197;-69
2021/03/21 02:28:39;;;;;;;3.92;3.05;;;4.80;56.70;;;;;;5073321;28;20590;-68
2021/03/21 02:31:10;;;;;;;5.68;3.20;;;4.90;56.70;;;;;;5020588;28;20202;-69
2021/03/21 02:33:44;;;;;;;3.63;2.70;;;5.00;56.00;;;;;;5073411;28;20313;-68
2021/03/21 02:36:15;;;;;;;4.57;2.60;;;5.00;55.50;;;;;;5073433;28;20225;-68
2021/03/21 02:38:46;;;;;;;7.55;3.30;;;5.00;55.60;;;;;;5073403;28;20669;-69
2021/03/21 02:41:17;;;;;;;4.30;3.28;;;5.10;55.20;;;;;;5073597;28;20289;-69
2021/03/21 02:43:49;;;;;;;4.70;3.35;;;5.00;55.80;;;;;;5073537;28;20219;-69
2021/03/21 02:46:27;;;;;;;4.97;3.00;;;5.10;54.80;;;;;;5073209;28;20210;-68
2021/03/21 02:48:57;;;;;;;4.32;2.75;;;5.10;54.50;;;;;;5073478;28;20612;-69
2021/03/21 02:51:27;;;;;;;4.32;2.95;;;5.00;53.80;;;;;;5073677;28;20214;-69
2021/03/21 02:53:59;;;;;;;5.60;2.85;;;5.10;54.40;;;;;;5073104;28;20244;-69
2021/03/21 02:56:28;;;;;;;2.95;2.60;;;5.10;53.90;;;;;;5073102;28;20314;-68
2021/03/21 02:59:00;;;;;;;9.15;3.78;;;5.10;54.30;;;;;;5073304;28;20209;-69
2021/03/21 03:01:33;;;;;;;3.53;2.60;;;5.00;55.10;;;;;;5073258;28;20297;-69
2021/03/21 03:04:03;;;;;;;4.25;3.20;;;5.00;54.30;;;;;;5073350;28;20233;-69
2021/03/21 03:06:35;;;;;;;4.13;2.90;;;5.00;54.00;;;;;;5072966;28;20661;-68
2021/03/21 03:09:07;;;;;;;5.70;3.20;;;5.00;54.20;;;;;;5076497;28;20623;-69
2021/03/21 03:11:39;;;;;;;4.63;2.80;;;4.90;54.00;;;;;;5075156;28;20209;-69
2021/03/21 03:14:10;;;;;;;5.00;3.13;;;4.90;53.90;;;;;;5074499;28;20227;-68
2021/03/21 03:16:45;;;;;;;7.18;2.95;;;4.90;54.20;;;;;;5073094;28;20233;-68
2021/03/21 03:19:22;;;;;;;4.18;3.35;;;4.90;54.40;;;;;;5073136;28;20293;-68
2021/03/21 03:21:55;;;;;;;2.97;2.50;;;4.90;54.60;;;;;;5073149;28;20213;-68
2021/03/21 03:24:33;;;;;;;4.93;2.70;;;4.90;55.00;;;;;;5073067;28;20287;-68
2021/03/21 03:27:04;;;;;;;4.65;2.83;;;4.90;54.70;;;;;;5072994;28;20203;-68
2021/03/21 03:29:34;;;;;;;3.45;2.88;;;4.90;54.90;;;;;;5073133;28;20597;-68
2021/03/21 03:32:05;;;;;;;3.47;2.75;;;4.90;54.80;;;;;;5073119;28;20207;-68
2021/03/21 03:34:34;;;;;;;4.40;2.58;;;4.80;54.50;;;;;;5073045;28;20300;-68
2021/03/21 03:37:00;;;;;;;3.67;2.65;;;4.80;55.20;;;;;;5072623;28;20229;-68
2021/03/21 03:39:27;;;;;;;3.03;2.40;;;4.80;55.00;;;;;;5072976;28;20294;-68
2021/03/21 03:42:00;;;;;;;7.57;3.25;;;4.80;55.10;;;;;;5076642;28;20238;-68
2021/03/21 03:44:34;;;;;;;3.75;2.53;;;4.80;55.10;;;;;;5076408;28;20305;-68
2021/03/21 03:47:08;;;;;;;4.22;2.60;;;4.80;55.50;;;;;;5076231;28;20293;-68
2021/03/21 03:49:42;;;;;;;6.43;3.15;;;4.80;55.40;;;;;;5076392;28;20209;-68
2021/03/21 03:52:25;;;;;;;3.90;2.60;;;4.80;55.40;;;;;;5076457;28;20202;-68
2021/03/21 03:54:59;;;;;;;4.20;2.50;;;4.80;55.20;;;;;;5076409;28;20226;-68
2021/03/21 03:57:29;;;;;;;4.95;2.63;;;4.80;55.60;;;;;;5075990;28;20244;-68
2021/03/21 04:00:11;;;;;;;4.80;2.67;;;4.90;56.10;;;;;;5076185;28;20203;-68
2021/03/21 04:02:45;;;;;;;3.80;3.05;;;4.90;56.00;;;;;;5075971;28;20202;-67
2021/03/21 04:05:19;;;;;;;4.40;2.92;;;5.00;56.40;;;;;;5076364;28;20388;-68
2021/03/21 04:07:56;;;;;;;3.95;2.70;;;4.90;56.10;;;;;;5076021;28;20201;-68
2021/03/21 04:10:28;;;;;;;3.22;2.30;;;4.90;56.40;;;;;;5076039;28;20209;-68
2021/03/21 04:13:07;;;;;;;4.68;2.83;;;4.90;56.50;;;;;;5075685;28;20773;-68
2021/03/21 04:15:38;;;;;;;2.70;2.30;;;4.90;56.70;;;;;;5076012;28;20644;-68
2021/03/21 04:18:10;;;;;;;3.05;2.75;;;4.80;56.40;;;;;;5075570;28;20229;-68
2021/03/21 04:20:40;;;;;;;4.32;3.13;;;4.80;56.60;;;;;;5076047;28;20207;-68
2021/03/21 04:23:13;;;;;;;3.83;2.70;;;4.90;56.90;;;;;;5076010;28;20279;-68
2021/03/21 04:25:45;;;;;;;3.35;2.55;;;4.90;57.60;;;;;;5077459;28;20290;-69
2021/03/21 04:28:20;;;;;;;4.45;2.97;;;4.90;57.40;;;;;;5077776;28;20290;-69
2021/03/21 04:30:50;;;;;;;4.78;2.47;;;4.90;57.10;;;;;;5076285;28;20202;-68
2021/03/21 04:33:21;;;;;;;5.75;3.45;;;5.00;57.10;;;;;;5075632;28;20222;-68
2021/03/21 04:35:51;;;;;;;7.03;2.88;;;5.00;57.50;;;;;;5075705;28;20289;-68
2021/03/21 04:38:22;;;;;;;5.93;3.00;;;5.10;57.70;;;;;;5075141;28;20287;-68
2021/03/21 04:40:49;;;;;;;3.97;2.80;;;5.10;57.40;;;;;;5075559;28;20234;-68
2021/03/21 04:43:21;;;;;;;4.70;2.60;;;5.10;57.40;;;;;;5075223;28;20752;-68
2021/03/21 04:45:51;;;;;;;4.45;2.72;;;5.10;57.70;;;;;;5075168;28;20217;-68
2021/03/21 04:48:21;;;;;;;4.15;3.05;;;5.10;57.70;;;;;;5075247;28;20286;-68
2021/03/21 04:50:49;;;;;;;7.25;3.20;;;5.10;57.60;;;;;;5074997;28;20230;-68
2021/03/21 04:53:20;;;;;;;2.72;2.53;;;5.10;57.90;;;;;;5074306;28;20305;-68
2021/03/21 04:55:56;;;;;;;4.20;2.92;;;5.10;58.30;;;;;;5075291;28;20194;-68
2021/03/21 04:58:31;;;;;;;5.15;3.40;;;5.10;58.30;;;;;;5075027;28;20258;-68
2021/03/21 05:01:05;;;;;;;3.65;2.80;;;5.10;58.30;;;;;;5075003;28;20289;-68
2021/03/21 05:03:36;;;;;;;3.97;3.00;;;5.10;58.40;;;;;;5074929;28;20218;-68
2021/03/21 05:06:10;;;;;;;2.80;2.35;;;5.10;58.40;;;;;;5074524;28;20636;-68
2021/03/21 05:08:41;;;;;;;4.25;2.78;;;5.10;58.40;;;;;;5074536;28;20293;-68
2021/03/21 05:11:08;;;;;;;3.67;3.33;;;5.10;58.50;;;;;;5075064;28;20542;-68
2021/03/21 05:13:42;;;;;;;4.13;2.70;;;5.10;58.40;;;;;;5074834;28;20309;-68
2021/03/21 05:16:17;;;;;;;3.63;2.70;;;5.10;58.90;;;;;;5074672;28;20256;-68
2021/03/21 05:18:51;;;;;;;4.45;2.90;;;5.10;59.10;;;;;;5074477;28;20294;-68
2021/03/21 05:21:26;;;;;;;2.85;2.55;;;5.20;60.10;;;;;;5074622;28;20206;-68
2021/03/21 05:23:58;;;;;;;5.93;2.97;;;5.20;59.40;;;;;;5074421;28;20234;-68
2021/03/21 05:26:33;;;;;;;5.15;2.67;;;5.20;59.10;;;;;;5074418;28;20203;-68
2021/03/21 05:29:26;;;;;;;4.85;2.90;;;5.20;59.50;;;;;;5074600;28;20355;-68
2021/03/21 05:31:53;;;;;;;3.95;2.60;;;5.30;59.10;;;;;;5075024;28;20289;-68
2021/03/21 05:34:20;;;;;;;4.65;2.47;;;5.30;61.10;;;;;;5074450;28;20314;-68
2021/03/21 05:37:08;;;;;;;4.53;2.67;;;5.30;60.40;;;;;;5074100;28;20223;-68
2021/03/21 05:39:42;;;;;;;7.35;3.63;;;5.20;60.20;;;;;;5074303;28;20284;-68
2021/03/21 05:42:38;;;;;;;5.03;3.53;;;5.20;59.90;;;;;;5074345;28;20207;-68
2021/03/21 05:45:19;;;;;;;6.93;3.80;;;5.20;60.20;;;;;;5074106;28;20210;-68
2021/03/21 05:48:18;;;;;;;3.95;3.20;;;5.10;58.90;;;;;;5073938;28;20206;-68
2021/03/21 05:51:17;;;;;;;4.10;3.20;;;5.20;59.30;;;;;;5074217;28;20633;-68
2021/03/21 05:54:20;;;;;;;5.13;2.90;;;5.20;60.10;;;;;;5073745;28;20229;-68
2021/03/21 05:57:01;;;;;;;4.95;3.10;;;5.10;59.60;;;;;;5073834;28;20207;-68
2021/03/21 05:59:41;;;;;;;7.85;3.42;;;5.10;59.60;;;;;;5074025;28;20209;-69
2021/03/21 06:02:20;;;;;;;6.95;3.80;;;5.10;60.10;;;;;;5073985;28;20206;-68
2021/03/21 06:05:26;;;;;;;8.23;3.92;;;5.10;60.20;;;;;;5073885;28;20229;-68
2021/03/21 06:08:14;;;;;;;8.40;4.40;;;5.20;60.80;;;;;;5073853;28;20314;-68
2021/03/21 06:11:13;;;;;;;4.35;3.40;;;5.20;60.30;;;;;;5073864;28;20281;-68
2021/03/21 06:13:48;;;;;;;4.57;2.55;;;5.20;60.50;;;;;;5073553;28;20328;-68
2021/03/21 06:16:43;;;;;;;4.18;3.10;;;5.20;60.70;;;;;;5073681;28;20303;-68
2021/03/21 06:19:34;;;;;;;4.60;3.25;;;5.20;61.00;;;;;;5073799;28;20199;-68
2021/03/21 06:22:21;;;;;;;3.88;3.08;;;5.20;60.80;;;;;;5073792;28;20199;-68
2021/03/21 06:25:11;;;;;;;3.28;2.80;;;5.20;60.80;;;;;;5039983;28;20222;-68
2021/03/21 06:28:14;;;;;;;6.50;3.28;;;5.20;60.80;;;;;;5073281;28;20202;-68
2021/03/21 06:31:03;;;;;;;3.25;2.10;;;5.20;60.80;;;;;;5073593;28;20203;-68
2021/03/21 06:33:44;;;;;;;3.83;2.60;;;5.10;60.60;;;;;;5073597;28;20233;-68
2021/03/21 06:36:19;;;;;;;6.53;3.10;;;5.10;61.00;;;;;;5073485;28;20278;-68
2021/03/21 06:39:15;;;;;;;4.80;2.67;;;5.10;60.80;;;;;;5073631;28;20717;-68
2021/03/21 06:42:07;;;;;;;5.00;2.30;;;5.10;61.30;;;;;;5073354;28;20255;-68
2021/03/21 06:44:59;;;;;;;9.02;5.13;;;5.20;61.30;;;;;;5072902;28;20309;-68
2021/03/21 06:47:56;;;;;;;4.93;3.00;;;5.20;60.90;;;;;;5073344;28;20290;-68
2021/03/21 06:50:44;;;;;;;3.80;2.45;;;5.30;61.00;;;;;;5073295;28;20228;-68
2021/03/21 06:53:17;;;;;;;9.45;3.72;;;5.30;63.50;;;;;;5073890;28;20756;-68
2021/03/21 06:55:50;;;;;;;5.63;3.30;;;5.30;61.80;;;;;;5073317;28;20661;-68
2021/03/21 06:58:49;;;;;;;4.93;2.65;;;5.30;61.40;;;;;;5073213;28;20321;-68
2021/03/21 07:01:40;;;;;;;4.13;2.70;;;5.40;61.80;;;;;;5070746;28;20289;-68
2021/03/21 07:04:48;;;;;;;6.47;4.25;;;5.40;62.00;;;;;;5069660;28;20226;-68
2021/03/21 07:08:05;;;;;;;9.10;3.65;;;5.30;61.50;;;;;;5073090;28;20195;-68
2021/03/21 07:11:19;;;;;;;4.70;2.72;;;5.30;62.50;;;;;;5073250;28;20249;-68
2021/03/21 07:14:16;;;;;;;3.45;2.72;;;5.30;62.00;;;;;;5011438;28;20225;-68
2021/03/21 07:17:16;;;;;;;11.45;3.08;;;5.30;62.20;;;;;;5065972;28;20222;-68
2021/03/21 07:20:35;;;;;;;2.75;2.55;;;5.30;62.40;;;;;;5077110;28;20286;-68
2021/03/21 07:23:33;;;;;;;4.00;3.03;;;5.30;62.60;;;;;;5076977;28;20329;-68
2021/03/21 07:26:37;;;;;;;4.68;2.65;;;5.30;62.70;;;;;;5076783;28;20289;-69
2021/03/21 07:29:32;;;;;;;4.40;3.10;;;5.30;63.20;;;;;;5076933;28;20330;-68
2021/03/21 07:32:27;;;;;;;3.22;2.90;;;5.40;63.50;;;;;;5063760;28;20224;-68
2021/03/21 07:35:19;;;;;;;3.97;2.60;;;5.40;63.80;;;;;;5075071;28;20387;-68
2021/03/21 07:37:56;;;;;;;4.88;2.80;;;5.50;63.60;;;;;;5076348;28;20692;-68
2021/03/21 07:40:40;;;;;;;7.30;2.92;;;5.50;62.80;;;;;;5076688;28;20212;-68
2021/03/21 07:43:28;;;;;;;3.63;2.88;;;5.60;63.10;;;;;;5076748;28;20223;-68
2021/03/21 07:46:22;;;;;;;5.10;2.90;;;5.60;63.10;;;;;;5076382;28;20207;-68
2021/03/21 07:49:09;;;;;;;3.22;2.90;;;5.60;63.10;;;;;;5043067;28;20242;-68
2021/03/21 07:51:50;;;;;;;3.00;2.70;;;5.70;63.70;;;;;;5076496;28;20209;-68
2021/03/21 07:54:26;;;;;;;5.10;3.08;;;5.80;63.10;;;;;;5076417;28;20230;-68
2021/03/21 07:56:58;;;;;;;3.90;2.83;;;5.80;63.90;;;;;;5076136;28;20226;-68
2021/03/21 07:59:27;;;;;;;4.10;3.28;;;5.90;64.00;;;;;;5076244;28;20213;-68
2021/03/21 08:01:54;;;;;;;5.03;3.33;;;5.80;62.90;;;;;;5077011;28;20309;-68
2021/03/21 08:04:24;;;;;;;8.25;3.10;;;5.90;63.00;;;;;;5075924;28;20222;-68
2021/03/21 08:06:57;;;;;;;4.95;3.10;;;5.90;62.60;;;;;;5075840;28;20688;-68
2021/03/21 08:09:30;;;;;;;5.47;3.55;;;5.90;63.60;;;;;;5076140;28;20260;-68
2021/03/21 08:12:05;;;;;;;5.05;3.67;;;6.00;63.30;;;;;;5076089;28;20241;-68
2021/03/21 08:14:33;;;;;;;4.80;3.83;;;6.00;63.60;;;;;;5076025;28;20218;-68
2021/03/21 08:17:04;;;;;;;4.78;2.80;;;6.00;63.30;;;;;;5075585;28;20219;-68
2021/03/21 08:19:33;;;;;;;4.70;3.20;;;6.00;63.40;;;;;;5075836;28;20203;-68
2021/03/21 08:22:00;;;;;;;5.00;3.05;;;6.00;63.80;;;;;;5075769;28;20206;-68
2021/03/21 08:24:31;;;;;;;4.85;3.42;;;6.00;63.00;;;;;;5075838;28;20635;-68
2021/03/21 08:27:00;;;;;;;4.25;2.92;;;6.10;63.00;;;;;;5075452;28;20272;-68
2021/03/21 08:29:27;;;;;;;8.68;5.20;;;6.10;61.60;;;;;;5075604;28;20723;-68
2021/03/21 08:32:13;;;;;;;5.80;4.03;;;6.10;62.20;;;;;;5075752;28;20294;-68
2021/03/21 08:34:43;;;;;;;6.15;4.03;;;6.20;62.10;;;;;;5075495;28;20265;-68
2021/03/21 08:37:32;;;;;;;5.50;3.20;;;6.30;62.40;;;;;;5075344;28;20221;-68
2021/03/21 08:40:09;;;;;;;5.43;3.53;;;6.30;62.60;;;;;;5075475;28;20210;-68
2021/03/21 08:42:39;;;;;;;3.35;2.83;;;6.30;61.90;;;;;;5075229;28;20214;-68
2021/03/21 08:45:24;;;;;;;3.97;3.67;;;6.30;62.40;;;;;;5075126;28;20222;-68
2021/03/21 08:48:00;;;;;;;5.00;2.85;;;6.40;63.40;;;;;;5075469;28;20552;-68
2021/03/21 08:50:36;;;;;;;4.28;3.50;;;6.40;63.20;;;;;;5075214;28;20259;-68
2021/03/21 08:53:03;;;;;;;3.53;3.10;;;6.40;62.40;;;;;;5075250;28;20222;-68
2021/03/21 08:55:32;;;;;;;3.67;2.97;;;6.40;62.20;;;;;;5075383;28;20233;-68
2021/03/21 08:58:00;;;;;;;5.43;3.53;;;6.40;62.60;;;;;;5074842;28;20759;-68
2021/03/21 09:00:34;;;;;;;6.20;3.10;;;6.40;62.50;;;;;;5075171;28;20557;-68
2021/03/21 09:03:17;;;;;;;4.10;3.10;;;6.40;62.20;;;;;;5075201;28;20222;-68
2021/03/21 09:05:54;;;;;;;6.25;3.75;;;6.40;62.30;;;;;;5075130;28;20263;-68
2021/03/21 09:08:29;;;;;;;5.85;3.00;;;6.40;61.80;;;;;;5075033;28;20198;-68
2021/03/21 09:11:04;;;;;;;5.10;3.83;;;6.40;62.00;;;;;;5074933;28;20256;-68
2021/03/21 09:13:34;;;;;;;3.83;2.60;;;6.50;61.70;;;;;;5075113;28;20218;-68
2021/03/21 09:16:05;;;;;;;4.65;3.20;;;6.40;61.70;;;;;;5074713;28;20203;-68
2021/03/21 09:18:33;;;;;;;5.13;3.63;;;6.40;62.20;;;;;;5074831;28;20223;-68
2021/03/21 09:21:27;;;;;;;7.45;3.53;;;6.40;62.50;;;;;;5074761;28;20206;-68
2021/03/21 09:24:08;;;;;;;3.55;3.05;;;6.40;62.10;;;;;;5074780;28;20238;-68
2021/03/21 09:26:46;;;;;;;3.95;3.15;;;6.30;62.10;;;;;;5074516;28;20210;-68
2021/03/21 09:29:22;;;;;;;7.47;5.13;;;6.20;61.70;;;;;;5074575;28;20612;-68
2021/03/21 09:31:49;;;;;;;11.95;6.90;;;6.20;62.40;;;;;;5074621;28;20297;-68
2021/03/21 09:34:21;;;;;;;5.65;3.65;;;6.20;63.10;;;;;;5074531;28;20222;-68
2021/03/21 09:36:52;;;;;;;4.10;3.50;;;6.30;63.20;;;;;;5074334;28;20226;-68
2021/03/21 09:39:22;;;;;;;5.82;2.42;;;6.30;62.50;;;;;;5073902;28;20209;-68
2021/03/21 09:41:50;;;;;;;6.25;3.30;;;6.20;62.40;;;;;;5074870;28;20260;-68
2021/03/21 09:44:25;;;;;;;4.03;3.58;;;6.20;62.80;;;;;;5074275;28;20229;-68
2021/03/21 09:46:58;;;;;;;5.53;3.42;;;6.20;63.10;;;;;;5074337;28;20205;-68
2021/03/21 09:49:40;;;;;;;3.65;2.97;;;6.30;64.10;;;;;;5074596;28;20289;-68
2021/03/21 09:52:13;;;;;;;5.53;3.58;;;6.20;63.90;;;;;;5074348;28;20203;-68
2021/03/21 09:54:48;;;;;;;5.28;3.22;;;6.10;64.00;;;;;;5074351;28;20268;-68
2021/03/21 09:57:45;;;;;;;5.30;4.10;;;6.20;64.70;;;;;;5073785;28;20312;-68
2021/03/21 10:00:15;;;;;;;4.70;3.70;;;6.30;65.20;;;;;;5068244;28;20279;-68
2021/03/21 10:02:45;;;;;;;6.70;2.85;;;6.40;65.60;;;;;;5073655;28;20208;-68
2021/03/21 10:05:22;;;;;;;4.53;3.50;;;6.50;65.10;;;;;;5074056;28;20242;-68
2021/03/21 10:07:57;;;;;;;5.80;3.75;;;6.60;64.50;;;;;;5073790;28;20206;-68
2021/03/21 10:10:27;;;;;;;8.00;3.80;;;6.60;64.90;;;;;;5073814;28;20207;-68
2021/03/21 10:12:55;;;;;;;5.05;3.47;;;6.70;65.30;;;;;;5073686;28;20724;-68
2021/03/21 10:15:25;;;;;;;5.30;3.70;;;6.80;65.30;;;;;;5073915;28;20741;-68
2021/03/21 10:17:54;;;;;;;5.32;3.30;;;6.90;64.90;;;;;;5073843;28;20230;-68
2021/03/21 10:20:42;;;;;;;5.72;4.45;;;7.00;65.50;;;;;;5073636;28;20309;-68
2021/03/21 10:23:08;;;;;;;4.85;3.83;;;7.20;65.30;;;;;;5073685;28;20313;-68
2021/03/21 10:26:06;;;;;;;7.90;4.72;;;7.20;65.10;;;;;;5073484;28;20291;-68
2021/03/21 10:28:42;;;;;;;6.75;4.05;;;7.30;66.20;;;;;;5073726;28;20560;-68
2021/03/21 10:31:42;;;;;;;5.60;3.25;;;7.40;66.60;;;;;;5073739;28;20206;-68
2021/03/21 10:34:37;;;;;;;4.25;2.80;;;7.30;69.60;;;;;;5073708;28;20222;-68
2021/03/21 10:37:04;;;;;;;4.47;3.50;;;7.20;70.30;;;;;;5059743;28;20598;-68
2021/03/21 10:39:57;;;;;;;5.85;3.80;;;7.20;70.70;;;;;;5073426;28;20657;-68
2021/03/21 10:42:41;;;;;;;6.07;3.80;;;7.20;71.50;;;;;;5073520;28;20264;-68
2021/03/21 10:45:11;;;;;;;5.72;3.75;;;7.10;71.70;;;;;;5073489;28;20233;-68
2021/03/21 10:47:45;;;;;;;5.13;3.70;;;7.10;72.30;;;;;;5073462;28;20202;-68
2021/03/21 10:50:44;;;;;;;7.20;3.92;;;7.00;74.40;;;;;;5076395;28;20205;-68
2021/03/21 10:53:20;;;;;;;8.35;4.10;;;6.90;76.00;;;;;;5072257;28;20283;-68
2021/03/21 10:56:13;;;;;;;7.82;4.13;;;6.50;78.30;;;;;;5077595;28;20233;-69
2021/03/21 10:58:53;;;;;;;5.32;3.63;;;6.40;82.30;;;;;;5077400;28;20262;-69
2021/03/21 11:01:35;;;;;;;7.10;4.20;;;6.50;85.80;;;;;;5077521;28;20203;-68
2021/03/21 11:04:16;;;;;;;7.90;4.95;;;6.40;90.10;;;;;;5077424;28;20226;-68
2021/03/21 11:06:52;;;;;;;7.85;4.47;;;6.50;91.40;;;;;;5077172;28;20305;-67
2021/03/21 11:09:21;;;;;;;7.78;4.00;;;6.50;92.00;;;;;;5077099;28;20729;-68
2021/03/21 11:11:49;;;;;;;8.07;4.35;;;6.50;92.30;;;;;;5077253;28;20206;-69
2021/03/21 11:14:20;;;;;;;8.00;4.70;;;6.60;92.10;;;;;;5077229;28;20581;-68
2021/03/21 11:16:54;;;;;;;6.82;4.47;;;6.80;91.90;;;;;;5076851;28;20203;-68
2021/03/21 11:19:22;;;;;;;6.35;3.88;;;6.90;91.50;;;;;;5077221;28;20187;-68
2021/03/21 11:21:49;;;;;;;8.32;4.90;;;6.80;91.60;;;;;;5076773;28;20252;-68
2021/03/21 11:24:25;;;;;;;10.50;5.05;;;6.90;91.80;;;;;;5077008;28;20258;-68
2021/03/21 11:26:52;;;;;;;7.05;5.05;;;7.00;91.90;;;;;;5077084;28;20545;-68
2021/03/21 11:29:32;;;;;;;7.03;4.90;;;7.20;91.90;;;;;;5076861;28;20297;-69
2021/03/21 11:32:11;;;;;;;9.05;5.85;;;7.20;90.90;;;;;;5076767;28;20293;-69
2021/03/21 11:34:37;;;;;;;6.38;5.15;;;7.20;90.60;;;;;;5076806;28;20583;-68
2021/03/21 11:37:08;;;;;;;8.80;5.03;;;7.10;89.90;;;;;;5076537;28;20564;-68
2021/03/21 11:39:38;;;;;;;8.15;4.97;;;7.10;90.10;;;;;;5076585;28;20213;-68
2021/03/21 11:42:22;;;;;;;7.28;4.97;;;7.20;90.10;;;;;;5076678;28;20313;-68
2021/03/21 11:44:51;;;;;;;6.35;4.13;;;7.30;88.30;;;;;;5076203;28;20234;-68
2021/03/21 11:47:30;;;;;;;6.82;4.30;;;7.20;86.40;;;;;;5076440;28;20195;-68
2021/03/21 11:49:59;;;;;;;6.32;4.13;;;7.20;86.90;;;;;;5076417;28;20760;-68
2021/03/21 11:52:28;;;;;;;7.38;4.28;;;7.20;86.80;;;;;;5076484;28;20198;-68
2021/03/21 11:54:55;;;;;;;6.60;3.63;;;7.30;85.30;;;;;;5076339;28;20589;-68
2021/03/21 11:57:36;;;;;;;6.47;4.70;;;7.30;84.70;;;;;;5076224;28;20223;-68
2021/03/21 12:00:14;;;;;;;5.78;4.40;;;7.30;85.60;;;;;;5076102;28;20298;-68
2021/03/21 12:02:52;;;;;;;8.93;4.72;;;7.20;85.00;;;;;;5075998;28;20237;-68
2021/03/21 12:05:21;;;;;;;5.45;4.55;;;7.20;84.80;;;;;;5076017;28;20248;-68
2021/03/21 12:07:48;;;;;;;8.32;4.00;;;7.20;84.90;;;;;;5076072;28;20210;-68
2021/03/21 12:10:30;;;;;;;6.20;4.15;;;7.20;85.90;;;;;;5075917;28;20206;-68
2021/03/21 12:12:57;;;;;;;7.05;3.85;;;7.20;86.20;;;;;;5076049;28;20223;-68
2021/03/21 12:15:38;;;;;;;6.93;4.50;;;7.20;87.40;;;;;;5075881;28;20302;-68
2021/03/21 12:18:07;;;;;;;4.65;3.60;;;7.20;88.30;;;;;;5075813;28;20647;-68
2021/03/21 12:20:43;;;;;;;6.85;4.20;;;7.30;88.20;;;;;;5076021;28;20198;-68
2021/03/21 12:23:32;;;;;;;5.45;4.10;;;7.40;89.40;;;;;;5075908;28;20620;-68
2021/03/21 12:26:17;;;;;;;4.07;3.25;;;7.30;89.40;;;;;;5075915;28;20527;-68
2021/03/21 12:28:56;;;;;;;4.75;3.25;;;7.00;91.80;;;;;;5075680;28;20241;-68
2021/03/21 12:31:35;;;;;;;5.93;3.95;;;7.00;93.00;;;;;;5075659;28;20285;-68
2021/03/21 12:34:29;;;;;;;6.10;3.50;;;7.00;94.10;;;;;;5075561;28;20229;-68
2021/03/21 12:37:05;;;;;;;7.10;4.10;;;7.00;95.30;;;;;;5075576;28;20230;-68
2021/03/21 12:39:33;;;;;;;4.85;3.80;;;7.10;95.80;;;;;;5075651;28;20206;-68
2021/03/21 12:42:00;;;;;;;5.40;3.47;;;7.40;96.00;;;;;;5075576;28;20692;-68
2021/03/21 12:44:28;;;;;;;4.80;3.70;;;7.50;95.60;;;;;;5075051;28;20254;-68
2021/03/21 12:46:59;;;;;;;5.90;3.47;;;7.70;95.80;;;;;;5075159;28;20234;-68
2021/03/21 12:49:41;;;;;;;6.22;3.35;;;7.80;95.60;;;;;;5075463;28;20199;-68
2021/03/21 12:52:10;;;;;;;3.25;2.65;;;7.80;95.70;;;;;;5075299;28;20249;-68
2021/03/21 12:54:37;;;;;;;5.50;3.67;;;8.00;95.70;;;;;;5075305;28;20244;-68
2021/03/21 12:57:10;;;;;;;5.50;3.47;;;8.10;96.00;;;;;;5074931;28;20546;-68
2021/03/21 12:59:36;;;;;;;3.42;2.55;;;8.10;96.40;;;;;;5075253;28;20229;-68
2021/03/21 13:02:03;;;;;;;4.95;3.00;;;8.00;97.30;;;;;;5074985;28;20213;-68
2021/03/21 13:04:31;;;;;;;6.38;3.50;;;8.00;97.40;;;;;;5075120;28;20248;-68
2021/03/21 13:06:57;;;;;;;3.90;2.50;;;8.10;97.70;;;;;;5074807;28;20353;-68
2021/03/21 13:09:23;;;;;;;3.80;1.75;;;8.10;97.80;;;;;;5075027;28;20230;-68
2021/03/21 13:11:50;;;;;;;3.38;2.80;;;8.10;98.10;;;;;;5074543;28;20365;-68
2021/03/21 13:14:16;;;;;;;5.88;3.63;;;8.00;98.70;;;;;;5074222;28;20629;-68
2021/03/21 13:16:43;;;;;;;4.10;2.70;;;8.00;98.90;;;;;;5074788;28;20215;-68
2021/03/21 13:19:09;;;;;;;5.28;3.05;;;8.00;99.30;;;;;;5074708;28;20227;-68
2021/03/21 13:21:36;;;;;;;4.57;3.20;;;7.90;99.60;;;;;;5074586;28;20656;-68
2021/03/21 13:24:03;;;;;;;5.85;4.20;;;7.90;99.90;;;;;;5074646;28;20227;-68
2021/03/21 13:26:29;;;;;;;5.60;3.38;;;8.10;99.90;;;;;;5074563;28;20199;-68
2021/03/21 13:28:56;;;;;;;3.95;3.58;;;8.10;99.90;;;;;;5074318;28;20348;-68
2021/03/21 13:31:22;;;;;;;6.30;4.07;;;8.10;99.70;;;;;;5074524;28;20297;-68
2021/03/21 13:33:49;;;;;;;7.65;3.92;;;8.00;99.70;;;;;;5074559;28;20317;-68
2021/03/21 13:36:16;;;;;;;7.38;3.53;;;7.90;99.90;;;;;;5074072;28;20298;-68
2021/03/21 13:38:43;;;;;;;4.88;3.65;;;8.00;99.90;;;;;;5074186;28;20223;-68
2021/03/21 13:41:10;;;;;;;7.35;4.05;;;8.00;99.90;;;;;;5074419;28;20650;-68